Terminal Aerodrome Forecast
Issued by NWS Northern Indiana

Home | Current Version | Previous Version | Graphics & Text | Print | Product List | Glossary Off
Versions: 1 2 3 4 5 6 7 8 9 10 11 12

000
FTUS43 KIWX 061730
TAFFWA
TAF
KFWA 061730Z 0618/0718 21010KT P6SM SCT035
     FM070900 20010KT 5SM -SHRA BR BKN030
     FM071300 23010KT 4SM -SHRA VCTS BKN020CB=

USA.gov is the U.S. government's official web portal to all federal, state and local government web resources and services.